Station: Grove  

  Atmospheric Gas Attenuation - ITU Rec 676-11   ----------------- dB/100km -----------------
Date Time Temp RH % AH g/m3 Dew Point Wind Direction Speed kph Gust kph Barometer mB Rainfall Since 9am 24GHz 47GHz 76GHz 122GHz 134GHz 241GHz
08/05 12:30 12.2 68 7.34 6.5 17 30 1013.1 0 17.0 24.3 35.6 93.1 83.8 287.2
08/05 12:20 12 69 7.35 6.5 13 17 1013.1 0 17.0 24.4 35.7 93.4 84.2 288.4
08/05 12:10 11.8 67 7.05 5.9 28 35 1013.1 0 16.4 24.0 34.6 90.6 80.5 275.6
08/05 12:00 11.7 69 7.22 6.2 17 28 1013.1 0 16.7 24.3 35.3 92.4 82.8 283.6
08/05 11:50 11.8 67 7.05 5.9 15 17 1013.1 0 16.4 24.0 34.6 90.6 80.5 275.6
08/05 11:40 12 67 7.14 6.1 20 32 1013.1 0 16.6 24.1 34.9 91.3 81.5 279.0
08/05 11:30 11.9 65 6.88 5.5 19 33 1013.1 0 16.0 23.7 33.9 88.7 78.3 267.7
08/05 11:20 11.9 65 6.88 5.5 20 28 1013.1 0 16.0 23.7 33.9 88.7 78.3 267.7
08/05 11:10 12 65 6.93 5.6 13 17 1013.1 0 16.1 23.7 34.1 89.1 78.8 269.6
08/05 11:00 12 65 6.93 5.6 28 43 1013.1 0 16.1 23.7 34.1 89.1 78.8 269.6
08/05 10:50 12.4 64 6.99 5.8 22 30 1013.1 0 16.2 23.7 34.1 89.3 79.1 270.9
08/05 10:40 11.9 68 7.2 6.2 22 24 1013.1 0 16.7 24.2 35.1 92.0 82.3 282.0
08/05 10:30 11.8 70 7.37 6.5 19 30 1013.1 0 17.1 24.5 35.9 93.9 84.6 290.1
08/05 10:20 11.3 67 6.84 5.4 17 19 1013.1 0 15.9 23.8 34.0 88.9 78.3 267.9
08/05 10:10 11.3 66 6.73 5.2 24 30 1013.1 0 15.7 23.6 33.6 87.8 76.9 263.0
08/05 10:00 11.6 67 6.96 5.7 20 35 1013.1 0 16.2 23.9 34.3 89.8 79.6 272.3
08/05 09:50 11.5 68 7.02 5.8 20 28 1013.1 0 16.3 24.0 34.6 90.6 80.4 275.3
08/05 09:40 11 73 7.31 6.4 19 24 1013.1 0 17.0 24.6 36.0 94.2 84.7 290.3
08/05 09:30 10.5 72 6.98 5.7 20 33 1013.1 0 16.3 24.2 34.9 91.3 81.0 277.0
08/05 09:20 10.4 73 7.04 5.8 19 24 1013.1 0 16.4 24.3 35.2 92.1 81.8 280.1
08/05 09:10 10.3 72 6.9 5.5 15 19 1013.1 0 16.1 24.1 34.7 90.7 80.1 274.0
08/05 09:00 10.2 72 6.85 5.4 17 28 1013.1 0 16.0 24.1 34.5 90.3 79.6 272.1
08/05 08:50 10.1 73 6.9 5.5 17 20 1013.1 4.6 16.1 24.2 34.8 90.9 80.3 274.7
08/05 08:40 9.9 74 6.91 5.5 11 17 1013.1 4.6 16.1 24.3 34.9 91.3 80.7 275.9
08/05 08:30 9.8 74 6.87 5.4 13 20 1013.1 4.6 16.1 24.2 34.8 91.0 80.3 274.4
08/05 08:20 9.6 75 6.87 5.4 15 19 1013.1 4.6 16.1 24.3 34.8 91.2 80.5 275.1
08/05 08:10 9.5 76 6.92 5.5 13 20 1013.1 4.6 16.2 24.4 35.1 91.8 81.2 277.8
08/05 08:00 9.6 75 6.87 5.4 20 33 1013.1 4.6 16.1 24.3 34.8 91.2 80.5 275.1
08/05 07:50 9.8 74 6.87 5.4 26 32 1013.1 4.6 16.1 24.2 34.8 91.0 80.3 274.4
08/05 07:40 9.8 74 6.87 5.4 20 24 1013.1 4.6 16.1 24.2 34.8 91.0 80.3 274.4
08/05 07:30 9.7 75 6.92 5.5 19 32 1013.1 4.6 16.2 24.3 35.0 91.6 81.0 277.0
08/05 07:20 9.8 74 6.87 5.4 24 33 1013.1 4.6 16.1 24.2 34.8 91.0 80.3 274.4
08/05 07:10 9.9 74 6.91 5.5 19 22 1013.1 4.6 16.1 24.3 34.9 91.3 80.7 275.9
08/05 07:00 9.8 76 7.05 5.8 19 30 1013.1 4.6 16.5 24.5 35.5 92.9 82.6 282.7
08/05 06:50 9.7 77 7.1 5.9 20 24 1013.1 4.6 16.6 24.6 35.7 93.5 83.4 285.3
08/05 06:40 9.7 77 7.1 5.9 19 20 1013.1 4.6 16.6 24.6 35.7 93.5 83.4 285.3
08/05 06:30 9.8 76 7.05 5.8 17 24 1013.1 4.6 16.5 24.5 35.5 92.9 82.6 282.7
08/05 06:20 9.8 75 6.96 5.6 15 19 1013.1 4.6 16.3 24.4 35.1 91.9 81.4 278.5
08/05 06:10 9.8 76 7.05 5.8 19 20 1013.1 4.6 16.5 24.5 35.5 92.9 82.6 282.7
08/05 06:00 9.7 77 7.1 5.9 13 20 1013.1 4.6 16.6 24.6 35.7 93.5 83.4 285.3
08/05 05:50 9.8 77 7.15 6 11 15 1013.1 4.6 16.7 24.7 35.9 93.9 83.9 287.3
08/05 05:40 10 75 7.05 5.8 17 22 1013.1 4.6 16.4 24.5 35.4 92.6 82.4 282.0
08/05 05:30 9.9 75 7 5.7 13 20 1013.1 4.6 16.3 24.4 35.2 92.2 81.9 280.0
08/05 05:20 10.1 74 7 5.7 15 22 1013.1 4.6 16.3 24.4 35.1 92.0 81.6 279.3
08/05 05:10 10 74 6.96 5.6 15 22 1013.1 4.6 16.2 24.3 35.0 91.7 81.2 277.8
08/05 05:00 10 74 6.96 5.6 19 26 1013.1 4.6 16.2 24.3 35.0 91.7 81.2 277.8
08/05 04:50 10 75 7.05 5.8 20 26 1013.1 4.6 16.4 24.5 35.4 92.6 82.4 282.0
08/05 04:40 9.8 76 7.05 5.8 11 15 1013.1 4.6 16.5 24.5 35.5 92.9 82.6 282.7
08/05 04:30 9.8 76 7.05 5.8 13 24 1013.1 4.6 16.5 24.5 35.5 92.9 82.6 282.7
08/05 04:20 9.8 75 6.96 5.6 19 22 1013.1 4.6 16.3 24.4 35.1 91.9 81.4 278.5
08/05 04:10 10 75 7.05 5.8 22 28 1013.1 4.6 16.4 24.5 35.4 92.6 82.4 282.0
08/05 04:00 9.9 76 7.1 5.9 17 28 1013.1 4.6 16.6 24.6 35.6 93.3 83.2 284.6
08/05 03:50 9.9 76 7.1 5.9 20 26 1013.1 4.6 16.6 24.6 35.6 93.3 83.2 284.6
08/05 03:40 10.1 75 7.09 5.9 19 22 1013.1 4.6 16.5 24.5 35.5 92.9 82.8 283.4
08/05 03:30 10 75 7.05 5.8 15 30 1013.1 4.6 16.4 24.5 35.4 92.6 82.4 282.0
08/05 03:20 10.1 75 7.09 5.9 11 15 1013.1 4.6 16.5 24.5 35.5 92.9 82.8 283.4
08/05 03:10 10.4 73 7.04 5.8 22 26 1013.1 4.6 16.4 24.3 35.2 92.1 81.8 280.1
08/05 03:00 10.3 74 7.09 5.9 17 28 1013.1 4.6 16.5 24.4 35.4 92.7 82.6 282.7
08/05 02:50 10.6 73 7.13 6 11 13 1013.1 4.6 16.6 24.4 35.4 92.8 82.8 283.5
08/05 02:40 10.8 72 7.12 6 20 28 1013.1 4.6 16.6 24.4 35.3 92.4 82.5 282.3
08/05 02:30 10.8 71 7.02 5.8 20 32 1013.1 4.6 16.3 24.2 34.9 91.4 81.2 277.8
08/05 02:20 10.9 71 7.06 5.9 26 35 1013.1 4.6 16.4 24.2 35.0 91.7 81.6 279.2
08/05 02:10 10.7 74 7.27 6.3 24 35 1013.1 4.6 16.9 24.6 36.0 94.1 84.5 289.5
08/05 02:00 10.5 79 7.66 7 15 30 1013.1 4.6 17.7 25.3 37.6 98.6 89.9 308.4
08/05 01:50 10.5 81 7.86 7.4 9 15 1013.1 4.6 18.2 25.6 38.4 100.7 92.6 317.7
08/05 01:40 10.2 83 7.9 7.4 15 20 1013.1 4.6 18.3 25.8 38.7 101.6 93.5 320.8
08/05 01:30 10 86 8.08 7.8 13 28 1013.1 4.6 18.7 26.1 39.6 103.8 96.2 330.2
08/05 01:20 9.7 88 8.11 7.8 9 13 1013.1 4.6 18.7 26.3 39.9 104.6 97.0 333.0
08/05 01:10 9.9 87 8.13 7.8 13 17 1013.1 4.6 18.8 26.3 39.8 104.5 97.0 333.1
08/05 01:00 10 85 7.99 7.6 11 17 1013.1 4.6 18.5 26.0 39.2 102.8 95.0 326.0
08/05 00:50 10.4 82 7.9 7.5 11 11 1013.1 4.4 18.2 25.7 38.6 101.3 93.3 320.0
08/05 00:40 10.6 81 7.91 7.5 11 13 1013.1 4.4 18.3 25.7 38.6 101.2 93.1 319.7
08/05 00:30 10.4 81 7.81 7.3 11 17 1013.1 4.4 18.1 25.6 38.3 100.3 92.0 315.8
08/05 00:20 10.4 82 7.9 7.5 9 11 1013.1 4.4 18.2 25.7 38.6 101.3 93.3 320.0
08/05 00:10 10.7 81 7.96 7.6 7 9 1013.1 4.4 18.4 25.7 38.7 101.6 93.7 321.6
08/05 00:00 10.1 86 8.13 7.9 7 15 1013.1 4.4 18.8 26.2 39.7 104.2 96.7 332.2
07/05 23:50 9.4 94 8.5 8.5 15 20 1013.1 4.4 19.6 27.0 41.6 109.3 102.8 353.2
07/05 23:40 7.4 96 7.64 6.8 9 11 1013.1 4.4 17.8 26.2 39.0 102.3 93.3 319.9
07/05 23:30 8.1 98 8.16 7.8 9 13 1013.1 4.4 18.9 26.9 40.9 107.3 99.7 342.4
07/05 23:20 7.5 97 7.77 7.1 9 11 1013.1 4.4 18.1 26.4 39.5 103.7 95.0 325.8
07/05 23:10 7.6 96 7.74 7 13 13 1013.1 4.4 18.0 26.3 39.4 103.2 94.5 323.9
07/05 23:00 8 97 8.02 7.6 0 7 1013.1 4.4 18.6 26.6 40.3 105.8 97.9 335.9
07/05 22:50 7.9 97 7.97 7.5 0 0 1013.1 4.4 18.5 26.6 40.2 105.4 97.3 333.9
07/05 22:40 7.9 97 7.97 7.5 0 0 1013.1 4.2 18.5 26.6 40.2 105.4 97.3 333.9
07/05 22:30 7.9 97 7.97 7.5 4 7 1013.1 4 18.5 26.6 40.2 105.4 97.3 333.9
07/05 22:20 7.8 97 7.92 7.4 4 6 1013.1 3.6 18.4 26.5 40.0 105.0 96.7 331.9
07/05 22:10 7.8 97 7.92 7.4 7 9 1013.1 3.4 18.4 26.5 40.0 105.0 96.7 331.9
07/05 22:00 7.7 97 7.87 7.3 9 11 1013.1 3.4 18.3 26.5 39.9 104.5 96.2 329.9
07/05 21:50 7.7 96 7.79 7.1 7 7 1013.1 3.4 18.1 26.3 39.5 103.6 95.1 325.9
07/05 21:40 7.7 96 7.79 7.1 6 7 1013.1 3 18.1 26.3 39.5 103.6 95.1 325.9
07/05 21:30 7.7 96 7.79 7.1 7 9 1013.1 2.2 18.1 26.3 39.5 103.6 95.1 325.9
07/05 21:20 7.7 95 7.71 7 7 7 1013.1 1.6 18.0 26.2 39.2 102.7 93.9 322.0
07/05 21:10 7.8 94 7.67 6.9 6 7 1013.1 1 17.9 26.1 39.0 102.2 93.3 319.7
07/05 21:00 7.9 91 7.48 6.5 6 7 1013.1 0.8 17.5 25.8 38.1 99.9 90.5 310.1
07/05 20:50 7.9 89 7.31 6.2 6 7 1013.1 0.8 17.1 25.5 37.4 98.0 88.2 302.0
07/05 20:40 8.2 86 7.21 6 7 9 1013.1 0.6 16.9 25.2 36.9 96.5 86.5 296.1
07/05 20:30 8.4 83 7.04 5.7 6 9 1013.1 0.6 16.5 24.9 36.1 94.4 84.0 287.3
07/05 20:20 8.4 83 7.04 5.7 6 6 1013.1 0.4 16.5 24.9 36.1 94.4 84.0 287.3
07/05 20:10 8.1 84 6.99 5.6 11 11 1013.1 0.4 16.4 24.9 36.0 94.3 83.6 286.0
07/05 20:00 8.2 82 6.87 5.3 6 11 1013.1 0.4 16.1 24.7 35.5 92.8 81.9 280.0

Last Refresh: 08-May-2026 12:07:39

Bureau of Meteorology